ADDS METAR Data INFO
IDs: Format: Raw Decoded Include TAF

Data at: 2051 UTC 26 May 2017

KT65 262035Z AUTO 18013G23KT 7SM SCT017 BKN039 36/24 A2978 RMK AO2 T03620239
KT65 262015Z AUTO 19017G22KT 7SM SCT017 SCT025 BKN037 36/24 A2978 RMK AO2 T03590240
KT65 261955Z AUTO 18019G23KT 7SM SCT020 OVC037 36/24 A2979 RMK AO2 T03560240
KT65 261935Z AUTO 18014G20KT 5SM HZ SCT020 OVC035 35/24 A2979 RMK AO2 T03500242
KT65 261915Z AUTO 17014G20KT 7SM BKN035 35/24 A2980 RMK AO2 T03480242
KT65 261855Z AUTO 18014G22KT 7SM BKN033 36/24 A2980 RMK AO2 T03560242
KT65 261815Z AUTO 18018G24KT 7SM BKN033 35/24 A2981 RMK AO2 T03470241
KT65 261755Z AUTO 18018G24KT 7SM OVC033 34/24 A2981 RMK AO2 T03400240 10344 20265
KT65 261735Z AUTO 19015G22KT 7SM OVC033 34/24 A2981 RMK AO2 T03400241
KT65 261715Z AUTO 18016G22KT 7SM OVC031 33/24 A2981 RMK AO2 T03330239
KT65 261655Z AUTO 18017G24KT 7SM OVC029 33/24 A2981 RMK AO2 T03300240
KT65 261635Z AUTO 19017G28KT 7SM BKN029 BKN034 33/24 A2981 RMK AO2 T03310239
KT65 261615Z AUTO 18020G28KT 7SM BKN029 32/24 A2980 RMK AO2 T03220237
KT65 261555Z AUTO 19017G28KT 7SM BKN027 33/24 A2980 RMK AO2 T03260236
KT65 261535Z AUTO 18016G25KT 7SM BKN025 33/24 A2979 RMK AO2 T03250240
KT65 261515Z AUTO 18019G26KT 10SM BKN023 32/24 A2980 RMK AO2 T03160240
KT65 261455Z AUTO 18018G23KT 10SM BKN019 31/24 A2980 RMK AO2 T03110240
KT65 261435Z AUTO 17019G24KT 7SM OVC019 31/24 A2980 RMK AO2 T03060241
KT65 261415Z AUTO 18014G26KT 7SM OVC017 29/24 A2979 RMK AO2 T02930241
KT65 261355Z AUTO 17018G25KT 7SM OVC017 28/24 A2980 RMK AO2 T02830240
KT65 261335Z AUTO 18015G21KT 7SM OVC015 28/24 A2979 RMK AO2 T02790240
KT65 261315Z AUTO 17014G20KT 7SM OVC015 28/24 A2979 RMK AO2 T02750240
KT65 261255Z AUTO 18014G20KT 7SM OVC015 27/24 A2979 RMK AO2 T02720239
KT65 261235Z AUTO 18011G18KT 7SM OVC017 27/24 A2978 RMK AO2 T02700238
KT65 261215Z AUTO 17013G18KT 7SM OVC019 27/24 A2977 RMK AO2 T02660237
KT65 261155Z AUTO 17011G16KT 7SM OVC019 27/24 A2977 RMK AO2 T02650235 10265 20253
KT65 261135Z AUTO 17010KT 7SM OVC019 26/24 A2976 RMK AO2 T02640235
KT65 261115Z AUTO 17010KT 10SM OVC021 26/23 A2976 RMK AO2 T02620234
KT65 261055Z AUTO 17011G17KT 7SM OVC021 26/23 A2976 RMK AO2 T02620232
KT65 261035Z AUTO 17009KT 10SM OVC019 26/23 A2976 RMK AO2 T02610233
KT65 261015Z AUTO 17011KT 7SM OVC019 26/24 A2976 RMK AO2 T02610235
KT65 260955Z AUTO 18014G18KT 7SM OVC019 26/24 A2976 RMK AO2 T02620235
KT65 260935Z AUTO 17011G18KT 10SM OVC019 26/24 A2976 RMK AO2 T02630235
KT65 260915Z AUTO 18013G17KT 10SM OVC019 26/24 A2976 RMK AO2 T02630235
KT65 260855Z AUTO 18010G17KT 10SM OVC019 26/24 A2976 RMK AO2 T02610235
KT65 260835Z AUTO 18012G19KT 7SM OVC019 26/23 A2976 RMK AO2 T02600234
KT65 260815Z AUTO 17012G17KT 7SM OVC017 26/24 A2976 RMK AO2 T02600235
KT65 260755Z AUTO 17013G17KT 7SM BKN017 BKN022 26/24 A2976 RMK AO2 T02600235
KT65 260735Z AUTO 17011G15KT 10SM SCT019 26/24 A2976 RMK AO2 T02560235
KT65 260715Z AUTO 17011G18KT 10SM SCT019 26/23 A2977 RMK AO2 T02550234
KT65 260655Z AUTO 16013G19KT 10SM SCT019 26/23 A2976 RMK AO2 T02550234
KT65 260635Z AUTO 16011G19KT 7SM BKN019 26/24 A2977 RMK AO2 T02550235
KT65 260615Z AUTO 16010G16KT 7SM BKN019 26/24 A2979 RMK AO2 T02550235
KT65 260555Z AUTO 17010G15KT 10SM OVC019 26/24 A2979 RMK AO2 T02550235 10307 20255 403440197
KT65 260535Z AUTO 17011G14KT 7SM BKN019 26/24 A2979 RMK AO2 T02560235
KT65 260515Z AUTO 17009KT 7SM SCT019 26/24 A2979 RMK AO2 T02550235
KT65 260455Z AUTO 17008KT 10SM CLR 26/24 A2980 RMK AO2 T02560235
KT65 260435Z AUTO 17009KT 7SM SCT014 26/24 A2979 RMK AO2 T02580236
KT65 260415Z AUTO 17010KT 10SM CLR 26/23 A2979 RMK AO2 T02580233
KT65 260355Z AUTO 16010G16KT 7SM CLR 26/23 A2978 RMK AO2 T02600233
KT65 260335Z AUTO 16011G16KT 10SM CLR 26/23 A2977 RMK AO2 T02620232
KT65 260315Z AUTO 16009KT 10SM CLR 26/23 A2977 RMK AO2 T02620231
KT65 260255Z AUTO 17012G19KT 7SM SCT017 26/23 A2976 RMK AO2 T02640231
KT65 260235Z AUTO 18015G21KT 10SM SCT017 27/23 A2975 RMK AO2 T02660230
KT65 260215Z AUTO 17015G22KT 10SM CLR 27/23 A2974 RMK AO2 T02700229
KT65 260155Z AUTO 17017KT 10SM CLR 27/23 A2973 RMK AO2 T02730226
KT65 260135Z AUTO 17013G23KT 10SM CLR 28/23 A2973 RMK AO2 T02760225
KT65 260115Z AUTO 17015G22KT 10SM BKN027 28/23 A2972 RMK AO2 T02800226
KT65 260055Z AUTO 17016G24KT 10SM OVC027 29/23 A2972 RMK AO2 T02850226
KT65 260035Z AUTO 16013G24KT 10SM OVC027 29/23 A2971 RMK AO2 T02910226
KT65 260015Z AUTO 16015G22KT 10SM BKN029 30/23 A2970 RMK AO2 T02970228
KT65 252355Z AUTO 16016G25KT 10SM SCT029 31/23 A2970 RMK AO2 T03070229 10344 20302
KT65 252335Z AUTO 16014G23KT 7SM SCT030 31/23 A2969 RMK AO2 T03060230
KT65 252315Z AUTO 18018G23KT 10SM SCT030 32/23 A2969 RMK AO2 T03160230
KT65 252255Z AUTO 16017G21KT 10SM SCT032 33/23 A2969 RMK AO2 T03250230
KT65 252235Z AUTO 17016G24KT 10SM SCT032 32/23 A2969 RMK AO2 T03210228
KT65 252215Z AUTO 17016G23KT 10SM CLR 33/23 A2969 RMK AO2 T03300230
KT65 252155Z AUTO 17017G23KT 10SM SCT033 33/23 A2970 RMK AO2 T03310229
KT65 252135Z AUTO 15016G21KT 10SM SCT033 33/23 A2971 RMK AO2 T03310229
KT65 252115Z AUTO 16015G24KT 10SM SCT033 33/23 A2971 RMK AO2 T03310227
KT65 252055Z AUTO 17017G24KT 10SM SCT033 34/23 A2971 RMK AO2 T03380228
KT65 252035Z AUTO 16017G24KT 10SM SCT035 34/23 A2972 RMK AO2 T03370228
KT65 252015Z AUTO 17015G25KT 10SM SCT035 34/23 A2973 RMK AO2 T03360227
KT65 251955Z AUTO 14016G24KT 10SM SCT035 34/23 A2974 RMK AO2 T03360225
KT65 251935Z AUTO 16017G22KT 10SM SCT035 34/22 A2975 RMK AO2 T03380224
KT65 251915Z AUTO 16015G24KT 10SM BKN035 33/22 A2975 RMK AO2 T03300221
KT65 251855Z AUTO 16013G22KT 10SM BKN035 33/22 A2976 RMK AO2 T03300222
KT65 251835Z AUTO 17015G23KT 10SM BKN035 33/22 A2977 RMK AO2 T03280220
KT65 251815Z AUTO 15014G21KT 7SM OVC035 32/22 A2977 RMK AO2 T03240220
KT65 251755Z AUTO 17015G20KT 7SM OVC035 33/22 A2978 RMK AO2 T03260219 10329 20201
KT65 251735Z AUTO 17014G22KT 7SM OVC035 33/22 A2978 RMK AO2 T03250217
KT65 251715Z AUTO 17016G21KT 10SM OVC033 33/22 A2979 RMK AO2 T03250216
KT65 251655Z AUTO 16014G20KT 10SM BKN031 32/22 A2979 RMK AO2 T03160215
KT65 251635Z AUTO 16012G20KT 7SM SCT031 32/22 A2979 RMK AO2 T03200215
KT65 251615Z AUTO 16014G20KT 7SM BKN031 31/21 A2979 RMK AO2 T03130212
KT65 251555Z AUTO 18017G23KT 10SM BKN029 31/21 A2980 RMK AO2 T03050208
KT65 251535Z AUTO 16015G18KT 7SM BKN029 30/21 A2980 RMK AO2 T02990206
KT65 251515Z AUTO 18015KT 7SM SCT027 29/21 A2980 RMK AO2 T02920205
KT65 251455Z AUTO 17017G21KT 10SM CLR 28/20 A2980 RMK AO2 T02820201
KT65 251435Z AUTO 17016G20KT 7SM CLR 28/20 A2980 RMK AO2 T02800198
KT65 251415Z AUTO 17014G20KT 7SM CLR 27/20 A2980 RMK AO2 T02700195
KT65 251355Z AUTO 16012G16KT 7SM CLR 26/19 A2980 RMK AO2 T02610193
KT65 251335Z AUTO 17011G14KT 7SM CLR 26/19 A2979 RMK AO2 T02560193
KT65 251315Z AUTO 16009KT 7SM CLR 25/19 A2979 RMK AO2 T02450190
KT65 251255Z AUTO 15006KT 7SM CLR 23/19 A2979 RMK AO2 T02290185
KT65 251235Z AUTO 14005KT 7SM CLR 22/18 A2979 RMK AO2 T02150180
KT65 251215Z AUTO 15004KT 7SM CLR 21/18 A2979 RMK AO2 T02070178
KT65 251155Z AUTO 15004KT 10SM SCT043 20/18 A2979 RMK AO2 70003 T02020175 10205 20197
KT65 251135Z AUTO 16004KT 10SM SCT043 20/18 A2978 RMK AO2 T02000175
KT65 251115Z AUTO 15006KT 10SM SCT045 20/17 A2978 RMK AO2 T02000172
KT65 251055Z AUTO 15004KT 10SM CLR 20/17 A2978 RMK AO2 T02000172
KT65 251035Z AUTO 17006KT 10SM CLR 20/17 A2978 RMK AO2 T02010171
KT65 251015Z AUTO 15005KT 10SM CLR 20/17 A2977 RMK AO2 T02000170
KT65 250955Z AUTO 16005KT 10SM CLR 20/17 A2978 RMK AO2 T02000170
KT65 250935Z AUTO 17006KT 10SM CLR 20/17 A2978 RMK AO2 T02020170
KT65 250915Z AUTO 17006KT 10SM CLR 20/17 A2978 RMK AO2 T02010167
KT65 250855Z AUTO 17007KT 10SM CLR 20/17 A2978 RMK AO2 T02030165


Page loaded:  20:51 UTC  |   01:51 PM Pacific  |   02:51 PM Mountain  |   03:51 PM Central  |   04:51 PM Eastern

 

ADVISORIES

FORECASTS

FORECASTS

OBSERVATIONS

USER TOOLS

ABOUT US